Time;durP1;ratioP1;P1;durP2;ratioP2;P2;SDS_P1;SDS_P2;PMS_P1;PMS_P2;Temp;Humidity;BMP_temperature;BMP_pressure;BME280_temperature;BME280_humidity;BME280_pressure;Samples;Min_cycle;Max_cycle;Signal;HPM_P1;HPM_P2
2021/01/18 00:02:00;;;;;;;2.70;2.23;;;20.10;21.10;;;;;;5033877;28;20209;-48
2021/01/18 00:04:26;;;;;;;2.22;2.03;;;20.10;21.10;;;;;;5033825;28;20163;-50
2021/01/18 00:06:51;;;;;;;1.73;1.60;;;20.00;21.00;;;;;;5033934;28;20216;-50
2021/01/18 00:09:17;;;;;;;1.77;1.67;;;20.00;21.10;;;;;;5033342;28;20484;-51
2021/01/18 00:11:46;;;;;;;2.37;2.17;;;20.00;21.10;;;;;;5034176;28;20176;-49
2021/01/18 00:14:12;;;;;;;2.08;1.88;;;20.00;21.10;;;;;;5033811;28;20164;-50
2021/01/18 00:16:37;;;;;;;2.00;1.80;;;20.00;21.10;;;;;;5033759;28;20518;-50
2021/01/18 00:19:03;;;;;;;1.80;1.70;;;20.00;21.10;;;;;;5032886;28;20650;-50
2021/01/18 00:21:29;;;;;;;1.53;1.43;;;20.00;21.10;;;;;;5033912;28;20167;-51
2021/01/18 00:23:54;;;;;;;2.07;1.87;;;20.10;21.10;;;;;;5033270;28;20246;-50
2021/01/18 00:26:20;;;;;;;1.87;1.70;;;20.00;21.10;;;;;;5033466;28;20164;-49
2021/01/18 00:28:46;;;;;;;1.90;1.80;;;20.00;21.10;;;;;;5033864;28;20243;-50
2021/01/18 00:31:12;;;;;;;2.40;2.20;;;20.00;21.60;;;;;;5033740;28;20160;-50
2021/01/18 00:33:38;;;;;;;2.30;2.10;;;20.00;21.10;;;;;;5033530;28;20694;-50
2021/01/18 00:36:05;;;;;;;2.60;2.40;;;20.00;21.10;;;;;;5033446;28;20486;-50
2021/01/18 00:38:31;;;;;;;2.00;1.80;;;20.00;21.10;;;;;;5032928;28;20441;-50
2021/01/18 00:40:57;;;;;;;1.73;1.60;;;20.00;21.10;;;;;;5033652;28;20160;-50
2021/01/18 00:43:23;;;;;;;2.15;1.80;;;20.00;21.10;;;;;;5033415;28;20202;-51
2021/01/18 00:45:49;;;;;;;2.40;2.13;;;20.00;21.10;;;;;;5033671;28;20156;-50
2021/01/18 00:48:15;;;;;;;2.20;1.63;;;20.00;21.10;;;;;;5033351;28;20206;-50
2021/01/18 00:50:40;;;;;;;2.53;2.00;;;20.00;21.10;;;;;;5033577;28;20461;-50
2021/01/18 00:53:06;;;;;;;1.90;1.80;;;20.00;21.10;;;;;;5032816;28;20247;-50
2021/01/18 00:55:32;;;;;;;2.10;1.83;;;20.00;21.10;;;;;;5033391;28;20200;-50
2021/01/18 00:57:58;;;;;;;1.50;1.33;;;20.00;21.10;;;;;;5033323;28;20222;-50
2021/01/18 01:00:25;;;;;;;2.38;2.17;;;20.00;21.10;;;;;;5031648;28;20160;-50
2021/01/18 01:02:52;;;;;;;1.95;1.75;;;20.00;21.10;;;;;;5033320;28;20155;-50
2021/01/18 01:05:20;;;;;;;2.17;1.90;;;20.00;21.70;;;;;;5033112;28;20167;-50
2021/01/18 01:07:51;;;;;;;3.08;2.00;;;20.00;21.10;;;;;;5032504;28;20261;-50
2021/01/18 01:10:21;;;;;;;2.30;2.10;;;20.00;21.10;;;;;;5033555;28;20259;-50
2021/01/18 01:12:56;;;;;;;2.00;1.80;;;20.00;21.10;;;;;;5033310;28;20642;-50
2021/01/18 01:15:23;;;;;;;2.00;1.75;;;20.00;21.20;;;;;;5033248;28;20250;-50
2021/01/18 01:17:48;;;;;;;1.40;1.30;;;20.00;21.10;;;;;;5033141;28;20183;-50
2021/01/18 01:20:15;;;;;;;1.73;1.57;;;20.00;21.10;;;;;;5033355;28;20707;-49
2021/01/18 01:22:42;;;;;;;2.13;1.75;;;20.00;21.10;;;;;;5032695;28;20245;-50
2021/01/18 01:25:12;;;;;;;2.13;1.98;;;20.00;21.10;;;;;;5033184;28;20152;-50
2021/01/18 01:27:39;;;;;;;2.50;2.30;;;20.00;21.10;;;;;;5032935;28;20179;-50
2021/01/18 01:30:06;;;;;;;2.30;2.05;;;20.00;21.20;;;;;;5035295;28;20144;-50
2021/01/18 01:32:32;;;;;;;2.35;1.92;;;20.00;21.20;;;;;;5036975;28;20263;-50
2021/01/18 01:34:58;;;;;;;2.13;1.83;;;20.00;21.20;;;;;;5036861;28;20152;-50
2021/01/18 01:37:24;;;;;;;1.73;1.63;;;19.90;21.10;;;;;;5036113;28;20490;-50
2021/01/18 01:39:50;;;;;;;2.10;1.97;;;19.90;21.10;;;;;;5036777;28;20185;-49
2021/01/18 01:42:22;;;;;;;2.10;1.90;;;19.90;21.10;;;;;;5036665;28;20508;-50
2021/01/18 01:44:49;;;;;;;2.22;2.03;;;19.90;21.10;;;;;;5036729;28;20155;-50
2021/01/18 01:47:39;;;;;;;2.47;1.90;;;19.90;21.10;;;;;;5036549;28;20167;-50
2021/01/18 01:50:12;;;;;;;1.52;1.42;;;19.90;21.20;;;;;;5024891;28;20187;-50
2021/01/18 01:52:48;;;;;;;2.97;2.10;;;19.90;21.10;;;;;;5036018;28;20182;-50
2021/01/18 01:55:31;;;;;;;1.40;1.30;;;19.90;21.20;;;;;;5036743;28;20159;-50
2021/01/18 01:58:02;;;;;;;2.20;2.00;;;19.90;21.10;;;;;;5036242;28;20634;-50
2021/01/18 02:00:36;;;;;;;1.92;1.77;;;19.90;21.70;;;;;;5036276;28;20206;-49
2021/01/18 02:03:11;;;;;;;2.28;1.98;;;19.90;21.10;;;;;;5036564;28;20241;-50
2021/01/18 02:05:38;;;;;;;1.80;1.70;;;19.90;21.20;;;;;;5036267;28;20151;-50
2021/01/18 02:08:06;;;;;;;2.03;1.63;;;19.90;21.20;;;;;;5035490;28;20264;-50
2021/01/18 02:10:33;;;;;;;1.83;1.73;;;19.90;21.20;;;;;;5036287;28;20159;-50
2021/01/18 02:13:01;;;;;;;1.55;1.45;;;19.90;21.20;;;;;;5036119;28;20607;-50
2021/01/18 02:15:52;;;;;;;2.30;1.85;;;19.90;21.20;;;;;;5036060;28;20175;-50
2021/01/18 02:18:46;;;;;;;1.80;1.70;;;19.90;21.20;;;;;;5031819;28;20203;-50
2021/01/18 02:21:42;;;;;;;1.23;1.10;;;19.90;21.20;;;;;;5036003;28;20155;-50
2021/01/18 02:24:25;;;;;;;2.08;1.77;;;19.90;21.20;;;;;;5035652;28;20187;-49
2021/01/18 02:27:24;;;;;;;2.17;1.77;;;19.90;21.20;;;;;;5035900;28;20618;-50
2021/01/18 02:30:11;;;;;;;1.60;1.50;;;19.90;21.20;;;;;;5035935;28;20155;-50
2021/01/18 02:33:01;;;;;;;2.15;1.92;;;19.90;21.20;;;;;;5035665;28;20168;-50
2021/01/18 02:36:04;;;;;;;2.80;2.20;;;19.90;21.20;;;;;;5035627;28;20167;-50
2021/01/18 02:38:54;;;;;;;1.52;1.40;;;19.90;21.20;;;;;;5035122;28;20218;-50
2021/01/18 02:41:36;;;;;;;1.98;1.77;;;19.90;21.20;;;;;;5034806;28;20163;-50
2021/01/18 02:44:07;;;;;;;1.70;1.52;;;19.90;21.20;;;;;;5035477;28;20148;-50
2021/01/18 02:46:36;;;;;;;1.70;1.60;;;19.90;21.20;;;;;;5035544;28;20227;-50
2021/01/18 02:49:03;;;;;;;2.13;1.92;;;19.90;21.30;;;;;;5035402;28;20156;-50
2021/01/18 02:51:32;;;;;;;1.88;1.77;;;19.90;21.20;;;;;;5035425;28;20187;-50
2021/01/18 02:54:02;;;;;;;2.05;1.95;;;19.90;21.20;;;;;;5035035;28;20174;-50
2021/01/18 02:56:31;;;;;;;1.80;1.70;;;19.90;21.80;;;;;;5035415;28;20183;-50
2021/01/18 02:58:58;;;;;;;1.60;1.42;;;19.90;21.20;;;;;;5035161;28;20188;-50
2021/01/18 03:01:30;;;;;;;1.75;1.65;;;19.90;21.20;;;;;;5035107;28;20258;-49
2021/01/18 03:04:05;;;;;;;1.88;1.67;;;19.90;21.20;;;;;;5035029;28;20615;-50
2021/01/18 03:06:47;;;;;;;1.80;1.70;;;19.90;21.20;;;;;;5035050;28;20214;-50
2021/01/18 03:09:21;;;;;;;2.13;1.95;;;19.90;21.20;;;;;;5034701;28;20151;-49
2021/01/18 03:11:50;;;;;;;1.98;1.77;;;19.90;21.20;;;;;;5035018;28;20148;-49
2021/01/18 03:14:26;;;;;;;1.65;1.50;;;19.90;21.20;;;;;;5035026;28;20218;-50
2021/01/18 03:16:55;;;;;;;2.33;1.70;;;19.90;21.20;;;;;;5035132;28;20163;-50
2021/01/18 03:19:29;;;;;;;1.95;1.85;;;19.90;21.20;;;;;;5034748;28;20661;-51
2021/01/18 03:21:55;;;;;;;1.63;1.50;;;20.00;21.90;;;;;;5034955;28;20152;-50
2021/01/18 03:24:22;;;;;;;1.57;1.47;;;20.00;21.30;;;;;;5034282;28;20160;-50
2021/01/18 03:26:48;;;;;;;2.20;2.00;;;20.00;21.20;;;;;;5017200;28;20539;-51
2021/01/18 03:29:14;;;;;;;1.83;1.73;;;20.00;21.20;;;;;;5034733;28;20171;-50
2021/01/18 03:31:39;;;;;;;2.10;1.90;;;20.00;21.20;;;;;;5035115;28;20179;-50
2021/01/18 03:34:05;;;;;;;1.90;1.60;;;20.00;21.20;;;;;;5034494;28;20615;-49
2021/01/18 03:36:31;;;;;;;1.70;1.60;;;20.00;21.20;;;;;;5034594;28;20243;-49
2021/01/18 03:38:57;;;;;;;2.17;1.97;;;20.00;21.20;;;;;;5033893;28;20192;-49
2021/01/18 03:41:22;;;;;;;1.73;1.63;;;20.00;21.20;;;;;;5034638;28;20406;-50
2021/01/18 03:43:48;;;;;;;1.97;1.83;;;20.00;21.20;;;;;;5034420;28;20191;-49
2021/01/18 03:46:13;;;;;;;1.93;1.73;;;20.00;21.20;;;;;;5034290;28;20155;-49
2021/01/18 03:48:39;;;;;;;1.97;1.77;;;20.00;21.20;;;;;;5034210;28;20164;-50
2021/01/18 03:51:05;;;;;;;2.10;1.90;;;20.00;21.20;;;;;;5034498;28;20164;-50
2021/01/18 03:53:30;;;;;;;2.23;1.93;;;20.00;21.10;;;;;;5033591;28;20163;-50
2021/01/18 03:55:56;;;;;;;1.90;1.80;;;20.00;21.10;;;;;;5034416;28;20171;-50
2021/01/18 03:58:21;;;;;;;1.90;1.80;;;20.00;21.10;;;;;;5034060;28;20188;-49
2021/01/18 04:00:47;;;;;;;1.50;1.40;;;20.00;21.10;;;;;;5034057;28;20175;-49
2021/01/18 04:03:19;;;;;;;1.63;1.53;;;20.00;21.10;;;;;;5034085;28;20615;-50
2021/01/18 04:05:48;;;;;;;1.77;1.50;;;20.00;21.10;;;;;;5034014;28;20156;-50
2021/01/18 04:08:16;;;;;;;1.77;1.45;;;20.00;21.20;;;;;;5033241;28;20223;-50
2021/01/18 04:10:42;;;;;;;1.50;1.40;;;20.00;21.20;;;;;;5034039;28;20183;-50
2021/01/18 04:13:07;;;;;;;1.97;1.40;;;20.00;21.10;;;;;;5034031;28;20156;-50
2021/01/18 04:15:33;;;;;;;1.30;1.13;;;20.00;21.10;;;;;;5033916;28;20160;-49
2021/01/18 04:17:59;;;;;;;1.93;1.60;;;20.00;21.70;;;;;;5016339;28;20191;-49
2021/01/18 04:20:25;;;;;;;2.20;1.93;;;20.00;21.10;;;;;;5033898;28;20166;-50
2021/01/18 04:22:56;;;;;;;1.95;1.75;;;20.00;21.10;;;;;;5033387;28;20449;-49
2021/01/18 04:25:24;;;;;;;1.48;1.38;;;20.00;21.10;;;;;;5034212;28;20187;-50
2021/01/18 04:27:55;;;;;;;1.60;1.42;;;20.00;21.10;;;;;;5033696;28;20247;-50
2021/01/18 04:30:23;;;;;;;2.00;1.83;;;20.00;21.10;;;;;;5015944;28;20222;-50
2021/01/18 04:33:24;;;;;;;1.98;1.88;;;20.00;21.10;;;;;;5033650;28;20657;-50
2021/01/18 04:35:50;;;;;;;2.25;2.05;;;20.00;21.10;;;;;;4991628;28;20183;-49
2021/01/18 04:38:15;;;;;;;2.70;2.20;;;20.00;21.10;;;;;;5033029;28;20657;-49
2021/01/18 04:40:42;;;;;;;2.30;1.80;;;20.00;21.10;;;;;;5033590;28;20161;-49
2021/01/18 04:43:09;;;;;;;1.58;1.35;;;20.00;21.10;;;;;;5033461;28;20227;-50
2021/01/18 04:45:35;;;;;;;1.70;1.60;;;20.00;21.10;;;;;;5033497;28;20155;-50
2021/01/18 04:48:00;;;;;;;1.60;1.50;;;20.00;21.10;;;;;;5033336;28;20159;-50
2021/01/18 04:50:28;;;;;;;1.70;1.50;;;20.00;21.10;;;;;;5033565;28;20171;-49
2021/01/18 04:53:15;;;;;;;1.83;1.65;;;20.00;21.10;;;;;;5032872;28;20247;-49
2021/01/18 04:55:44;;;;;;;2.00;1.73;;;20.00;21.10;;;;;;5032792;28;20187;-49
2021/01/18 04:58:11;;;;;;;1.95;1.75;;;20.00;21.10;;;;;;5033352;28;20278;-50
2021/01/18 05:00:46;;;;;;;2.00;1.90;;;20.00;21.10;;;;;;5033113;28;20156;-50
2021/01/18 05:03:17;;;;;;;1.73;1.52;;;20.00;21.10;;;;;;5033576;28;20213;-50
2021/01/18 05:05:51;;;;;;;1.65;1.55;;;20.00;21.10;;;;;;5036928;28;20148;-50
2021/01/18 05:08:31;;;;;;;1.55;1.45;;;20.00;21.10;;;;;;5036743;28;20215;-50
2021/01/18 05:10:57;;;;;;;2.20;1.80;;;20.00;21.10;;;;;;5037317;28;20161;-50
2021/01/18 05:13:24;;;;;;;1.30;1.20;;;20.00;21.10;;;;;;5019317;28;20658;-50
2021/01/18 05:15:53;;;;;;;1.67;1.58;;;20.00;21.10;;;;;;5037287;28;20287;-49
2021/01/18 05:18:30;;;;;;;2.00;1.80;;;20.00;21.10;;;;;;5037002;28;20202;-49
2021/01/18 05:20:56;;;;;;;1.65;1.55;;;20.00;21.60;;;;;;5037119;28;20610;-49
2021/01/18 05:23:21;;;;;;;1.47;1.33;;;20.00;21.10;;;;;;5036519;28;20160;-50
2021/01/18 05:25:47;;;;;;;1.70;1.60;;;20.00;21.10;;;;;;5037049;28;20171;-50
2021/01/18 05:28:12;;;;;;;4.87;2.03;;;20.00;21.10;;;;;;5019274;28;20249;-50
2021/01/18 05:30:42;;;;;;;2.80;1.93;;;20.00;21.10;;;;;;5036832;28;20166;-50
2021/01/18 05:33:16;;;;;;;1.90;1.70;;;20.00;21.10;;;;;;5036732;28;20182;-50
2021/01/18 05:35:49;;;;;;;1.50;1.40;;;20.10;21.20;;;;;;5036825;28;20160;-49
2021/01/18 05:38:15;;;;;;;2.30;1.55;;;20.10;21.10;;;;;;5036142;28;20241;-49
2021/01/18 05:40:50;;;;;;;1.80;1.70;;;20.10;21.10;;;;;;5018940;28;20623;-49
2021/01/18 05:43:17;;;;;;;1.55;1.45;;;20.10;21.10;;;;;;5036639;28;20178;-49
2021/01/18 05:45:46;;;;;;;2.55;1.70;;;20.10;21.10;;;;;;5036698;28;20152;-50
2021/01/18 05:48:24;;;;;;;1.70;1.60;;;20.10;21.10;;;;;;5036669;28;20198;-50
2021/01/18 05:51:01;;;;;;;1.48;1.38;;;20.10;21.10;;;;;;5036417;28;20156;-50
2021/01/18 05:53:29;;;;;;;1.80;1.40;;;20.10;21.10;;;;;;5035862;28;20225;-50
2021/01/18 05:55:54;;;;;;;1.40;1.30;;;20.10;21.10;;;;;;5036339;28;20282;-50
2021/01/18 05:58:30;;;;;;;1.80;1.70;;;20.10;21.10;;;;;;5036027;28;20643;-50
2021/01/18 06:00:58;;;;;;;1.52;1.42;;;20.10;21.10;;;;;;5036365;28;20218;-49
2021/01/18 06:03:30;;;;;;;1.35;1.25;;;20.10;21.10;;;;;;5036264;28;20166;-50
2021/01/18 06:05:57;;;;;;;1.80;1.70;;;20.10;21.10;;;;;;5036077;28;20227;-50
2021/01/18 06:08:26;;;;;;;1.83;1.70;;;20.10;21.10;;;;;;5035271;28;20593;-49
2021/01/18 06:10:56;;;;;;;1.33;1.23;;;20.10;21.10;;;;;;5036216;28;20156;-49
2021/01/18 06:13:28;;;;;;;1.77;1.67;;;20.10;21.10;;;;;;5035644;28;20160;-49
2021/01/18 06:16:03;;;;;;;2.00;1.80;;;20.10;21.10;;;;;;5035837;28;20151;-50
2021/01/18 06:18:30;;;;;;;1.55;1.45;;;20.10;21.10;;;;;;5035855;28;20202;-50
2021/01/18 06:20:57;;;;;;;1.42;1.33;;;20.10;21.10;;;;;;5018266;28;20187;-51
2021/01/18 06:23:24;;;;;;;2.13;1.92;;;20.10;21.10;;;;;;5035461;28;20160;-51
2021/01/18 06:25:53;;;;;;;1.55;1.45;;;20.10;21.10;;;;;;5035822;28;20159;-50
2021/01/18 06:28:33;;;;;;;1.35;1.25;;;20.10;21.10;;;;;;5035646;28;20156;-49
2021/01/18 06:31:07;;;;;;;2.10;1.95;;;20.10;21.10;;;;;;5035838;28;20246;-50
2021/01/18 06:33:48;;;;;;;1.80;1.70;;;20.10;21.10;;;;;;5035683;28;20187;-50
2021/01/18 06:36:17;;;;;;;1.30;1.20;;;20.20;21.20;;;;;;5035633;28;20532;-50
2021/01/18 06:39:05;;;;;;;1.60;1.50;;;20.10;21.10;;;;;;5035146;28;20539;-49
2021/01/18 06:41:37;;;;;;;1.40;1.30;;;20.20;21.20;;;;;;5035318;28;20179;-50
2021/01/18 06:44:04;;;;;;;1.30;1.20;;;20.20;21.10;;;;;;5035382;28;20167;-50
2021/01/18 06:46:30;;;;;;;1.52;1.42;;;20.20;21.10;;;;;;5035454;28;20681;-50
2021/01/18 06:48:56;;;;;;;1.40;1.30;;;20.20;21.10;;;;;;5035519;28;20156;-50
2021/01/18 06:51:24;;;;;;;1.75;1.42;;;20.20;21.10;;;;;;5035268;28;20176;-50
2021/01/18 06:53:52;;;;;;;1.42;1.33;;;20.20;21.60;;;;;;5034897;28;20156;-49
2021/01/18 06:56:25;;;;;;;1.90;1.80;;;20.20;21.10;;;;;;5035102;28;20239;-50
2021/01/18 06:59:12;;;;;;;1.75;1.30;;;20.20;21.00;;;;;;5035082;28;20274;-49
2021/01/18 07:01:39;;;;;;;1.83;1.73;;;20.20;21.00;;;;;;5034908;28;20179;-49
2021/01/18 07:04:09;;;;;;;1.80;1.70;;;20.20;21.00;;;;;;5034995;28;20202;-50
2021/01/18 07:06:40;;;;;;;1.40;1.30;;;20.20;21.00;;;;;;5039170;28;20231;-49
2021/01/18 07:09:14;;;;;;;1.73;1.55;;;20.20;21.00;;;;;;5054494;28;20193;-50
2021/01/18 07:11:40;;;;;;;1.70;1.60;;;20.20;21.00;;;;;;5054824;28;20173;-49
2021/01/18 07:14:08;;;;;;;1.40;1.30;;;20.20;21.00;;;;;;5054588;28;20160;-49
2021/01/18 07:16:34;;;;;;;1.70;1.60;;;20.20;21.00;;;;;;5054469;28;20641;-50
2021/01/18 07:19:03;;;;;;;4.05;2.90;;;20.30;21.00;;;;;;5053808;28;20206;-50
2021/01/18 07:21:30;;;;;;;3.95;3.58;;;19.80;16.00;;;;;;5041670;28;20201;-48
2021/01/18 07:24:00;;;;;;;6.15;3.75;;;19.30;15.80;;;;;;5046702;28;20166;-49
2021/01/18 07:26:36;;;;;;;4.00;3.10;;;18.70;15.30;;;;;;5053240;28;20162;-51
2021/01/18 07:29:07;;;;;;;4.38;3.53;;;18.00;15.70;;;;;;5053993;28;20162;-51
2021/01/18 07:31:36;;;;;;;4.50;2.63;;;17.50;16.70;;;;;;5048904;28;20682;-49
2021/01/18 07:34:11;;;;;;;5.82;2.95;;;17.70;19.30;;;;;;5053996;28;20171;-50
2021/01/18 07:36:37;;;;;;;2.33;2.13;;;17.90;20.30;;;;;;5052599;28;20583;-49
2021/01/18 07:39:24;;;;;;;3.93;2.27;;;18.10;20.50;;;;;;5052453;28;20199;-49
2021/01/18 07:41:49;;;;;;;2.40;2.20;;;18.30;20.50;;;;;;5052652;28;20166;-49
2021/01/18 07:44:46;;;;;;;3.70;2.17;;;18.40;20.70;;;;;;5053540;28;20626;-50
2021/01/18 07:47:14;;;;;;;2.47;2.28;;;18.60;20.80;;;;;;5053155;28;20151;-51
2021/01/18 07:49:47;;;;;;;2.55;2.00;;;18.80;21.00;;;;;;5053300;28;20167;-50
2021/01/18 07:52:18;;;;;;;4.10;2.20;;;18.90;20.90;;;;;;5051210;28;20637;-48
2021/01/18 07:54:44;;;;;;;4.63;2.08;;;19.00;20.90;;;;;;5053012;28;20174;-49
2021/01/18 07:57:27;;;;;;;2.42;1.60;;;19.10;21.00;;;;;;5040096;28;20187;-50
2021/01/18 08:00:19;;;;;;;3.00;1.83;;;19.20;21.10;;;;;;5029444;28;20341;-50
2021/01/18 08:02:46;;;;;;;2.10;1.85;;;19.20;21.00;;;;;;5035891;28;20231;-50
2021/01/18 08:05:32;;;;;;;3.53;2.22;;;19.20;20.90;;;;;;5026644;28;20269;-49
2021/01/18 08:08:08;;;;;;;2.40;1.65;;;19.30;20.50;;;;;;5024581;28;20227;-50
2021/01/18 08:10:49;;;;;;;8.18;2.17;;;19.40;20.40;;;;;;5001259;28;20189;-49
2021/01/18 08:13:45;;;;;;;3.67;2.83;;;19.40;20.40;;;;;;5021652;28;20257;-48
2021/01/18 08:16:11;;;;;;;2.97;2.00;;;19.50;20.50;;;;;;5022827;28;20188;-49
2021/01/18 08:18:49;;;;;;;1.88;1.70;;;19.50;20.60;;;;;;5027602;28;20644;-49
2021/01/18 08:21:33;;;;;;;2.63;1.63;;;19.60;20.70;;;;;;5028639;28;20221;-49
2021/01/18 08:24:12;;;;;;;4.78;2.53;;;19.60;20.70;;;;;;5026302;28;20314;-50
2021/01/18 08:27:00;;;;;;;4.53;2.10;;;19.60;20.80;;;;;;5023601;28;20171;-50
2021/01/18 08:29:51;;;;;;;2.67;2.00;;;19.70;20.60;;;;;;5023457;28;20164;-49
2021/01/18 08:32:23;;;;;;;3.47;2.30;;;19.70;20.80;;;;;;5027576;28;20188;-50
2021/01/18 08:34:50;;;;;;;2.30;1.65;;;19.80;20.60;;;;;;5029955;28;20241;-50
2021/01/18 08:37:16;;;;;;;4.50;1.73;;;19.90;20.80;;;;;;5028027;28;20187;-50
2021/01/18 08:40:14;;;;;;;1.65;1.52;;;19.90;20.80;;;;;;5025775;28;20283;-48
2021/01/18 08:42:44;;;;;;;5.63;2.00;;;20.00;20.90;;;;;;5028228;28;20568;-49
2021/01/18 08:45:22;;;;;;;2.90;2.25;;;20.00;20.80;;;;;;5028431;28;20262;-50
2021/01/18 08:48:03;;;;;;;3.25;1.90;;;20.10;20.70;;;;;;5029573;28;20275;-48
2021/01/18 08:50:34;;;;;;;8.02;2.05;;;20.20;21.20;;;;;;5028601;28;20164;-47
2021/01/18 08:53:03;;;;;;;3.72;2.00;;;20.20;20.60;;;;;;5023464;28;20189;-50
2021/01/18 08:55:28;;;;;;;1.88;1.60;;;20.30;20.50;;;;;;5026976;28;20263;-48
2021/01/18 08:58:05;;;;;;;2.30;1.80;;;20.30;20.50;;;;;;5025822;28;20317;-49
2021/01/18 09:00:47;;;;;;;3.05;1.60;;;20.30;20.50;;;;;;5024345;28;20262;-49
2021/01/18 09:03:20;;;;;;;2.55;1.60;;;20.40;20.50;;;;;;5025939;28;20165;-47
2021/01/18 09:05:46;;;;;;;2.80;1.65;;;20.40;20.50;;;;;;5027856;28;20222;-49
2021/01/18 09:08:14;;;;;;;2.33;1.42;;;20.40;20.50;;;;;;5023263;28;20231;-49
2021/01/18 09:10:40;;;;;;;4.65;1.95;;;20.50;20.60;;;;;;5026748;28;20164;-48
2021/01/18 09:13:07;;;;;;;1.98;1.55;;;20.50;20.60;;;;;;5025863;28;20180;-48
2021/01/18 09:15:34;;;;;;;4.88;1.95;;;20.50;20.60;;;;;;5029939;28;20227;-48
2021/01/18 09:18:18;;;;;;;2.35;2.00;;;20.50;20.60;;;;;;5030400;28;20206;-51
2021/01/18 09:20:45;;;;;;;1.88;1.45;;;20.50;20.60;;;;;;5022060;28;20176;-48
2021/01/18 09:23:12;;;;;;;2.60;1.88;;;20.50;20.60;;;;;;5021114;28;20191;-48
2021/01/18 09:25:38;;;;;;;2.25;1.73;;;20.50;20.60;;;;;;5023970;28;20196;-48
2021/01/18 09:28:09;;;;;;;2.50;2.10;;;20.60;20.70;;;;;;5029072;28;20195;-49
2021/01/18 09:30:39;;;;;;;2.15;1.52;;;20.60;21.10;;;;;;5024886;28;20175;-49
2021/01/18 09:33:12;;;;;;;2.47;1.77;;;20.60;21.30;;;;;;5030078;28;20187;-49
2021/01/18 09:35:39;;;;;;;3.30;1.83;;;20.60;21.30;;;;;;5023800;28;20183;-50
2021/01/18 09:38:07;;;;;;;4.18;1.80;;;20.60;21.80;;;;;;5022344;28;20644;-50
2021/01/18 09:40:35;;;;;;;4.60;1.88;;;20.60;21.30;;;;;;5018496;28;20179;-50
2021/01/18 09:43:01;;;;;;;3.58;2.00;;;20.60;21.30;;;;;;5030085;28;20175;-51
2021/01/18 09:45:27;;;;;;;3.90;1.80;;;20.70;21.30;;;;;;5029073;28;20182;-49
2021/01/18 09:47:58;;;;;;;8.97;1.80;;;20.70;21.20;;;;;;5014775;28;20183;-49
2021/01/18 09:50:25;;;;;;;2.25;1.60;;;20.70;21.30;;;;;;5025898;28;20430;-49
2021/01/18 09:52:52;;;;;;;2.17;1.40;;;20.70;21.40;;;;;;5030285;28;20214;-49
2021/01/18 09:55:24;;;;;;;3.63;1.92;;;20.70;21.20;;;;;;5027437;28;20172;-49
2021/01/18 09:58:09;;;;;;;2.20;1.65;;;20.80;21.20;;;;;;5026871;28;20198;-50
2021/01/18 10:00:37;;;;;;;2.28;1.73;;;20.80;21.30;;;;;;5020343;28;20318;-49
2021/01/18 10:03:04;;;;;;;3.67;1.50;;;20.80;21.20;;;;;;5027605;28;20268;-50
2021/01/18 10:05:32;;;;;;;1.83;1.60;;;20.90;21.00;;;;;;5029495;28;20570;-50
2021/01/18 10:08:02;;;;;;;2.30;1.75;;;20.90;21.00;;;;;;5031102;28;20218;-49
2021/01/18 10:10:28;;;;;;;4.75;2.00;;;20.90;21.10;;;;;;5028920;28;20180;-48
2021/01/18 10:12:54;;;;;;;1.90;1.63;;;20.90;21.10;;;;;;5030035;28;20176;-50
2021/01/18 10:15:25;;;;;;;3.35;1.92;;;20.90;21.10;;;;;;5029645;28;20438;-49
2021/01/18 10:17:55;;;;;;;2.03;1.40;;;21.00;21.00;;;;;;5026984;28;20508;-48
2021/01/18 10:20:28;;;;;;;2.63;1.80;;;21.00;20.90;;;;;;5022619;28;20175;-49
2021/01/18 10:22:55;;;;;;;3.53;2.33;;;20.50;20.70;;;;;;5031982;28;20588;-49
2021/01/18 10:25:25;;;;;;;2.53;1.40;;;21.10;21.00;;;;;;5029393;28;20176;-48
2021/01/18 10:27:56;;;;;;;2.42;1.48;;;21.10;21.00;;;;;;5026189;28;20206;-48
2021/01/18 10:30:29;;;;;;;4.50;2.17;;;21.10;21.00;;;;;;5031274;28;20611;-50
2021/01/18 10:32:56;;;;;;;1.38;1.25;;;21.20;21.10;;;;;;5030503;28;20234;-50
2021/01/18 10:35:23;;;;;;;2.60;2.05;;;21.20;21.10;;;;;;5033913;28;20171;-50
2021/01/18 10:37:50;;;;;;;5.10;1.80;;;21.10;33.10;;;;;;5031099;28;20176;-50
2021/01/18 10:40:22;;;;;;;3.03;2.10;;;21.30;21.20;;;;;;5028862;28;20180;-51
2021/01/18 10:42:53;;;;;;;1.70;1.60;;;21.30;21.10;;;;;;5028853;28;20237;-50
2021/01/18 10:45:22;;;;;;;2.42;1.63;;;21.30;21.10;;;;;;5030116;28;20171;-50
2021/01/18 10:47:59;;;;;;;2.88;1.60;;;21.30;21.10;;;;;;5029102;28;20159;-49
2021/01/18 10:50:29;;;;;;;3.55;1.50;;;21.40;21.20;;;;;;5024681;28;20270;-49
2021/01/18 10:53:03;;;;;;;3.38;1.88;;;21.40;21.20;;;;;;5028891;28;20686;-48
2021/01/18 10:55:29;;;;;;;2.65;1.65;;;21.50;21.30;;;;;;5032885;28;20619;-49
2021/01/18 10:57:54;;;;;;;2.40;1.40;;;21.50;21.30;;;;;;5025678;28;20686;-49
2021/01/18 11:00:23;;;;;;;3.40;1.80;;;21.50;21.30;;;;;;5029370;28;20512;-48
2021/01/18 11:02:59;;;;;;;2.63;2.10;;;21.60;23.20;;;;;;5029828;28;20171;-50
2021/01/18 11:05:35;;;;;;;5.50;2.85;;;21.60;21.30;;;;;;5027811;28;20183;-49
2021/01/18 11:08:06;;;;;;;6.03;3.40;;;21.60;21.20;;;;;;5023371;28;20219;-50
2021/01/18 11:10:36;;;;;;;4.50;3.55;;;21.60;21.10;;;;;;5031300;28;20171;-49
2021/01/18 11:13:09;;;;;;;3.50;2.95;;;21.60;21.10;;;;;;5029884;28;20218;-48
2021/01/18 11:15:38;;;;;;;2.88;2.30;;;21.50;21.10;;;;;;5029935;28;20167;-49
2021/01/18 11:18:05;;;;;;;4.43;3.33;;;21.50;21.30;;;;;;5027310;28;20196;-48
2021/01/18 11:20:32;;;;;;;3.30;2.97;;;21.50;21.20;;;;;;5030594;28;20211;-49
2021/01/18 11:22:58;;;;;;;2.95;2.63;;;21.50;21.00;;;;;;5030276;28;20239;-50
2021/01/18 11:25:24;;;;;;;7.93;2.95;;;21.50;21.00;;;;;;5031995;28;20503;-50
2021/01/18 11:27:49;;;;;;;2.90;2.67;;;21.50;21.00;;;;;;5028149;28;20615;-50
2021/01/18 11:30:16;;;;;;;3.90;3.00;;;21.50;20.90;;;;;;5025420;28;20599;-50
2021/01/18 11:32:42;;;;;;;3.65;2.65;;;21.50;20.90;;;;;;5028016;28;20184;-50
2021/01/18 11:35:12;;;;;;;4.97;2.90;;;21.50;21.00;;;;;;5022689;28;20511;-49
2021/01/18 11:37:39;;;;;;;3.40;2.42;;;21.50;21.00;;;;;;5023893;28;20176;-47
2021/01/18 11:40:11;;;;;;;3.80;2.90;;;21.50;21.00;;;;;;5023805;28;20698;-49
2021/01/18 11:42:37;;;;;;;6.55;3.10;;;21.50;21.00;;;;;;5030511;28;20179;-48
2021/01/18 11:45:05;;;;;;;6.82;3.05;;;21.60;20.90;;;;;;5013030;28;20222;-49
2021/01/18 11:47:32;;;;;;;3.75;2.67;;;21.50;20.60;;;;;;5029519;28;20507;-49
2021/01/18 11:49:58;;;;;;;5.85;2.83;;;21.60;20.60;;;;;;5020153;28;20190;-48
2021/01/18 11:52:24;;;;;;;3.17;2.70;;;21.50;20.60;;;;;;5002810;28;20214;-50
2021/01/18 11:54:49;;;;;;;4.50;3.07;;;21.60;20.60;;;;;;5019573;28;20519;-58
2021/01/18 11:57:15;;;;;;;8.20;2.87;;;21.50;20.80;;;;;;5031278;28;20531;-49
2021/01/18 11:59:41;;;;;;;5.57;3.10;;;21.50;21.30;;;;;;5028369;28;20581;-51
2021/01/18 12:02:06;;;;;;;6.97;3.13;;;21.60;20.60;;;;;;5029627;28;20635;-50
2021/01/18 12:04:32;;;;;;;4.93;3.30;;;21.60;20.50;;;;;;5030418;28;20179;-50
2021/01/18 12:06:58;;;;;;;5.75;3.45;;;21.60;20.50;;;;;;5028045;28;20215;-50
2021/01/18 12:09:24;;;;;;;3.47;2.80;;;21.50;20.40;;;;;;5028564;28;20502;-52
2021/01/18 12:11:49;;;;;;;5.03;2.93;;;21.50;20.30;;;;;;5027485;28;20176;-50
2021/01/18 12:14:15;;;;;;;8.37;3.13;;;21.60;20.40;;;;;;5023260;28;20198;-51
2021/01/18 12:16:41;;;;;;;7.43;2.93;;;21.60;20.40;;;;;;5029157;28;20187;-49
2021/01/18 12:19:07;;;;;;;3.63;2.43;;;21.60;21.00;;;;;;5027844;28;20223;-49
2021/01/18 12:21:41;;;;;;;4.00;3.33;;;21.60;21.10;;;;;;5026297;28;20178;-50
2021/01/18 12:24:07;;;;;;;4.60;2.90;;;21.60;21.20;;;;;;5025795;28;20187;-50
2021/01/18 12:26:32;;;;;;;5.50;3.08;;;21.70;21.40;;;;;;5026996;28;20616;-50
2021/01/18 12:28:58;;;;;;;6.37;3.47;;;21.70;21.40;;;;;;5015958;28;20231;-50
2021/01/18 12:31:24;;;;;;;6.37;3.13;;;21.70;21.40;;;;;;5019076;28;20670;-50
2021/01/18 12:33:49;;;;;;;5.50;3.10;;;21.70;21.40;;;;;;5030818;28;20255;-49
2021/01/18 12:36:15;;;;;;;4.40;2.80;;;21.70;21.40;;;;;;5028586;28;20183;-50
2021/01/18 12:38:41;;;;;;;4.73;3.17;;;21.70;21.40;;;;;;5024538;28;20227;-51
2021/01/18 12:41:06;;;;;;;3.50;3.07;;;21.70;21.40;;;;;;5025358;28;20282;-50
2021/01/18 12:43:32;;;;;;;5.67;3.00;;;21.60;21.30;;;;;;5024233;28;20179;-50
2021/01/18 12:46:00;;;;;;;8.07;3.23;;;21.70;21.40;;;;;;5027685;28;20182;-50
2021/01/18 12:48:26;;;;;;;6.82;3.22;;;21.70;21.40;;;;;;5027037;28;20185;-50
2021/01/18 12:50:52;;;;;;;4.87;3.53;;;21.70;21.40;;;;;;5027756;28;20505;-49
2021/01/18 12:56:02;;;;;;;3.67;2.67;;;21.70;21.40;;;;;;5028675;28;20573;-51
2021/01/18 12:58:28;;;;;;;6.35;3.33;;;21.70;21.40;;;;;;5025771;28;20207;-50
2021/01/18 13:00:53;;;;;;;3.87;2.93;;;21.70;21.40;;;;;;5029537;28;20195;-50
2021/01/18 13:03:19;;;;;;;4.00;2.90;;;21.70;21.40;;;;;;5021498;28;20190;-50
2021/01/18 13:05:45;;;;;;;5.47;2.87;;;21.70;21.40;;;;;;5012454;28;20717;-49
2021/01/18 13:08:11;;;;;;;4.90;3.20;;;21.70;21.40;;;;;;5030479;28;20234;-51